sensor_id;sensor_type;location;lat;lon;timestamp;P1;durP1;ratioP1;P2;durP2;ratioP2
59922;SDS011;45778;51.142;3.732;2023-01-04T00:00:23;0.10;;;0.10;;
59922;SDS011;45778;51.142;3.732;2023-01-04T00:02:48;0.00;;;0.00;;
59922;SDS011;45778;51.142;3.732;2023-01-04T00:05:14;0.00;;;0.00;;
59922;SDS011;45778;51.142;3.732;2023-01-04T00:07:40;0.10;;;0.10;;
59922;SDS011;45778;51.142;3.732;2023-01-04T00:10:06;0.10;;;0.10;;
59922;SDS011;45778;51.142;3.732;2023-01-04T00:12:33;0.00;;;0.00;;
59922;SDS011;45778;51.142;3.732;2023-01-04T00:15:00;0.00;;;0.00;;
59922;SDS011;45778;51.142;3.732;2023-01-04T00:17:26;0.00;;;0.00;;
59922;SDS011;45778;51.142;3.732;2023-01-04T00:19:51;0.98;;;0.95;;
59922;SDS011;45778;51.142;3.732;2023-01-04T00:22:17;0.00;;;0.00;;
59922;SDS011;45778;51.142;3.732;2023-01-04T00:24:43;1.33;;;1.23;;
59922;SDS011;45778;51.142;3.732;2023-01-04T00:27:08;0.00;;;0.00;;
59922;SDS011;45778;51.142;3.732;2023-01-04T00:29:34;0.08;;;0.08;;
59922;SDS011;45778;51.142;3.732;2023-01-04T00:32:00;0.30;;;0.30;;
59922;SDS011;45778;51.142;3.732;2023-01-04T00:34:25;0.00;;;0.00;;
59922;SDS011;45778;51.142;3.732;2023-01-04T00:36:51;1.25;;;0.77;;
59922;SDS011;45778;51.142;3.732;2023-01-04T00:39:17;4.90;;;1.63;;
59922;SDS011;45778;51.142;3.732;2023-01-04T00:41:47;4.13;;;1.60;;
59922;SDS011;45778;51.142;3.732;2023-01-04T00:44:14;3.30;;;0.82;;
59922;SDS011;45778;51.142;3.732;2023-01-04T00:46:41;0.00;;;0.00;;
59922;SDS011;45778;51.142;3.732;2023-01-04T00:49:08;0.00;;;0.00;;
59922;SDS011;45778;51.142;3.732;2023-01-04T00:51:35;0.00;;;0.00;;
59922;SDS011;45778;51.142;3.732;2023-01-04T00:54:03;0.08;;;0.08;;
59922;SDS011;45778;51.142;3.732;2023-01-04T00:56:30;0.00;;;0.00;;
59922;SDS011;45778;51.142;3.732;2023-01-04T00:58:57;0.00;;;0.00;;
59922;SDS011;45778;51.142;3.732;2023-01-04T01:01:24;0.00;;;0.00;;
59922;SDS011;45778;51.142;3.732;2023-01-04T01:03:54;0.00;;;0.00;;
59922;SDS011;45778;51.142;3.732;2023-01-04T01:06:21;0.00;;;0.00;;
59922;SDS011;45778;51.142;3.732;2023-01-04T01:08:49;0.00;;;0.00;;
59922;SDS011;45778;51.142;3.732;2023-01-04T01:11:18;0.00;;;0.00;;
59922;SDS011;45778;51.142;3.732;2023-01-04T01:13:44;0.00;;;0.00;;
59922;SDS011;45778;51.142;3.732;2023-01-04T01:16:11;0.00;;;0.00;;
59922;SDS011;45778;51.142;3.732;2023-01-04T01:18:39;0.05;;;0.05;;
59922;SDS011;45778;51.142;3.732;2023-01-04T01:21:07;0.00;;;0.00;;
59922;SDS011;45778;51.142;3.732;2023-01-04T01:23:38;0.00;;;0.00;;
59922;SDS011;45778;51.142;3.732;2023-01-04T01:26:05;0.00;;;0.00;;
59922;SDS011;45778;51.142;3.732;2023-01-04T01:28:33;0.00;;;0.00;;
59922;SDS011;45778;51.142;3.732;2023-01-04T01:31:04;0.22;;;0.22;;
59922;SDS011;45778;51.142;3.732;2023-01-04T01:33:31;0.00;;;0.00;;
59922;SDS011;45778;51.142;3.732;2023-01-04T01:36:00;0.00;;;0.00;;
59922;SDS011;45778;51.142;3.732;2023-01-04T01:38:27;0.95;;;0.95;;
59922;SDS011;45778;51.142;3.732;2023-01-04T01:40:52;0.00;;;0.00;;
59922;SDS011;45778;51.142;3.732;2023-01-04T01:43:19;0.55;;;0.55;;
59922;SDS011;45778;51.142;3.732;2023-01-04T01:45:48;2.55;;;1.60;;
59922;SDS011;45778;51.142;3.732;2023-01-04T01:48:25;5.13;;;1.70;;
59922;SDS011;45778;51.142;3.732;2023-01-04T01:50:56;1.65;;;1.33;;
59922;SDS011;45778;51.142;3.732;2023-01-04T01:53:25;2.08;;;1.40;;
59922;SDS011;45778;51.142;3.732;2023-01-04T01:55:54;3.85;;;1.20;;
59922;SDS011;45778;51.142;3.732;2023-01-04T01:58:31;4.18;;;1.52;;
59922;SDS011;45778;51.142;3.732;2023-01-04T02:01:01;6.07;;;1.90;;
59922;SDS011;45778;51.142;3.732;2023-01-04T02:03:32;4.10;;;1.30;;
59922;SDS011;45778;51.142;3.732;2023-01-04T02:08:28;3.83;;;1.30;;
59922;SDS011;45778;51.142;3.732;2023-01-04T02:10:54;2.88;;;1.13;;
59922;SDS011;45778;51.142;3.732;2023-01-04T02:13:22;5.53;;;2.13;;
59922;SDS011;45778;51.142;3.732;2023-01-04T02:16:16;0.25;;;0.25;;
59922;SDS011;45778;51.142;3.732;2023-01-04T02:27:50;0.00;;;0.00;;
59922;SDS011;45778;51.142;3.732;2023-01-04T02:33:18;0.00;;;0.00;;
59922;SDS011;45778;51.142;3.732;2023-01-04T02:47:32;0.00;;;0.00;;
59922;SDS011;45778;51.142;3.732;2023-01-04T02:53:11;0.00;;;0.00;;
59922;SDS011;45778;51.142;3.732;2023-01-04T03:04:59;0.00;;;0.00;;
59922;SDS011;45778;51.142;3.732;2023-01-04T03:13:16;0.17;;;0.17;;
59922;SDS011;45778;51.142;3.732;2023-01-04T03:15:51;0.00;;;0.00;;
59922;SDS011;45778;51.142;3.732;2023-01-04T03:18:39;0.00;;;0.00;;
59922;SDS011;45778;51.142;3.732;2023-01-04T03:21:07;0.00;;;0.00;;
59922;SDS011;45778;51.142;3.732;2023-01-04T03:23:36;0.00;;;0.00;;
59922;SDS011;45778;51.142;3.732;2023-01-04T03:26:28;0.00;;;0.00;;
59922;SDS011;45778;51.142;3.732;2023-01-04T03:29:18;0.00;;;0.00;;
59922;SDS011;45778;51.142;3.732;2023-01-04T03:32:11;0.10;;;0.10;;
59922;SDS011;45778;51.142;3.732;2023-01-04T03:35:01;0.00;;;0.00;;
59922;SDS011;45778;51.142;3.732;2023-01-04T03:37:47;0.00;;;0.00;;
59922;SDS011;45778;51.142;3.732;2023-01-04T03:41:02;0.05;;;0.00;;
59922;SDS011;45778;51.142;3.732;2023-01-04T03:44:10;0.00;;;0.00;;
59922;SDS011;45778;51.142;3.732;2023-01-04T03:47:07;0.00;;;0.00;;
59922;SDS011;45778;51.142;3.732;2023-01-04T03:50:04;0.00;;;0.00;;
59922;SDS011;45778;51.142;3.732;2023-01-04T03:52:36;0.00;;;0.00;;
59922;SDS011;45778;51.142;3.732;2023-01-04T03:55:04;0.00;;;0.00;;
59922;SDS011;45778;51.142;3.732;2023-01-04T03:57:31;0.05;;;0.05;;
59922;SDS011;45778;51.142;3.732;2023-01-04T04:00:00;0.00;;;0.00;;
59922;SDS011;45778;51.142;3.732;2023-01-04T04:02:33;0.00;;;0.00;;
59922;SDS011;45778;51.142;3.732;2023-01-04T04:04:59;0.00;;;0.00;;
59922;SDS011;45778;51.142;3.732;2023-01-04T04:07:44;0.00;;;0.00;;
59922;SDS011;45778;51.142;3.732;2023-01-04T04:10:28;0.43;;;0.43;;
59922;SDS011;45778;51.142;3.732;2023-01-04T04:12:54;0.00;;;0.00;;
59922;SDS011;45778;51.142;3.732;2023-01-04T04:15:20;0.00;;;0.00;;
59922;SDS011;45778;51.142;3.732;2023-01-04T04:17:45;0.00;;;0.00;;
59922;SDS011;45778;51.142;3.732;2023-01-04T04:20:11;0.00;;;0.00;;
59922;SDS011;45778;51.142;3.732;2023-01-04T04:22:37;0.43;;;0.43;;
59922;SDS011;45778;51.142;3.732;2023-01-04T04:25:03;0.00;;;0.00;;
59922;SDS011;45778;51.142;3.732;2023-01-04T04:27:29;0.00;;;0.00;;
59922;SDS011;45778;51.142;3.732;2023-01-04T04:29:55;0.00;;;0.00;;
59922;SDS011;45778;51.142;3.732;2023-01-04T04:32:21;0.00;;;0.00;;
59922;SDS011;45778;51.142;3.732;2023-01-04T04:34:47;0.00;;;0.00;;
59922;SDS011;45778;51.142;3.732;2023-01-04T04:37:12;0.22;;;0.22;;
59922;SDS011;45778;51.142;3.732;2023-01-04T04:39:38;0.00;;;0.00;;
59922;SDS011;45778;51.142;3.732;2023-01-04T04:42:04;0.00;;;0.00;;
59922;SDS011;45778;51.142;3.732;2023-01-04T04:44:29;0.13;;;0.13;;
59922;SDS011;45778;51.142;3.732;2023-01-04T04:46:58;0.08;;;0.08;;
59922;SDS011;45778;51.142;3.732;2023-01-04T04:49:23;0.20;;;0.20;;
59922;SDS011;45778;51.142;3.732;2023-01-04T04:51:49;0.00;;;0.00;;
59922;SDS011;45778;51.142;3.732;2023-01-04T04:54:16;0.00;;;0.00;;
59922;SDS011;45778;51.142;3.732;2023-01-04T04:56:44;0.00;;;0.00;;
59922;SDS011;45778;51.142;3.732;2023-01-04T04:59:10;1.45;;;1.30;;
59922;SDS011;45778;51.142;3.732;2023-01-04T05:01:36;2.67;;;1.73;;
59922;SDS011;45778;51.142;3.732;2023-01-04T05:04:02;0.20;;;0.20;;
59922;SDS011;45778;51.142;3.732;2023-01-04T05:06:27;0.10;;;0.10;;
59922;SDS011;45778;51.142;3.732;2023-01-04T05:08:54;0.00;;;0.00;;
59922;SDS011;45778;51.142;3.732;2023-01-04T05:11:19;0.00;;;0.00;;
59922;SDS011;45778;51.142;3.732;2023-01-04T05:14:05;0.00;;;0.00;;
59922;SDS011;45778;51.142;3.732;2023-01-04T05:16:31;0.00;;;0.00;;
59922;SDS011;45778;51.142;3.732;2023-01-04T05:18:56;0.00;;;0.00;;
59922;SDS011;45778;51.142;3.732;2023-01-04T05:21:22;0.00;;;0.00;;
59922;SDS011;45778;51.142;3.732;2023-01-04T05:23:48;0.05;;;0.05;;
59922;SDS011;45778;51.142;3.732;2023-01-04T05:26:13;0.00;;;0.00;;
59922;SDS011;45778;51.142;3.732;2023-01-04T05:28:39;0.08;;;0.08;;
59922;SDS011;45778;51.142;3.732;2023-01-04T05:31:05;0.32;;;0.32;;
59922;SDS011;45778;51.142;3.732;2023-01-04T05:33:31;0.00;;;0.00;;
59922;SDS011;45778;51.142;3.732;2023-01-04T05:35:58;0.00;;;0.00;;
59922;SDS011;45778;51.142;3.732;2023-01-04T05:38:25;0.00;;;0.00;;
59922;SDS011;45778;51.142;3.732;2023-01-04T05:40:51;0.00;;;0.00;;
59922;SDS011;45778;51.142;3.732;2023-01-04T05:43:18;0.00;;;0.00;;
59922;SDS011;45778;51.142;3.732;2023-01-04T05:45:49;0.05;;;0.05;;
59922;SDS011;45778;51.142;3.732;2023-01-04T05:48:16;0.28;;;0.28;;
59922;SDS011;45778;51.142;3.732;2023-01-04T05:50:42;0.00;;;0.00;;
59922;SDS011;45778;51.142;3.732;2023-01-04T05:53:09;0.00;;;0.00;;
59922;SDS011;45778;51.142;3.732;2023-01-04T05:55:36;0.00;;;0.00;;
59922;SDS011;45778;51.142;3.732;2023-01-04T05:58:02;0.00;;;0.00;;
59922;SDS011;45778;51.142;3.732;2023-01-04T06:00:28;0.17;;;0.17;;
59922;SDS011;45778;51.142;3.732;2023-01-04T06:02:54;0.00;;;0.00;;
59922;SDS011;45778;51.142;3.732;2023-01-04T06:05:21;0.10;;;0.10;;
59922;SDS011;45778;51.142;3.732;2023-01-04T06:07:47;0.00;;;0.00;;
59922;SDS011;45778;51.142;3.732;2023-01-04T06:10:13;0.00;;;0.00;;
59922;SDS011;45778;51.142;3.732;2023-01-04T06:12:39;0.00;;;0.00;;
59922;SDS011;45778;51.142;3.732;2023-01-04T06:15:06;0.00;;;0.00;;
59922;SDS011;45778;51.142;3.732;2023-01-04T06:17:32;0.00;;;0.00;;
59922;SDS011;45778;51.142;3.732;2023-01-04T06:19:59;0.00;;;0.00;;
59922;SDS011;45778;51.142;3.732;2023-01-04T06:22:25;0.00;;;0.00;;
59922;SDS011;45778;51.142;3.732;2023-01-04T06:24:52;0.00;;;0.00;;
59922;SDS011;45778;51.142;3.732;2023-01-04T06:27:17;0.00;;;0.00;;
59922;SDS011;45778;51.142;3.732;2023-01-04T06:29:43;0.00;;;0.00;;
59922;SDS011;45778;51.142;3.732;2023-01-04T06:32:09;18.42;;;2.28;;
59922;SDS011;45778;51.142;3.732;2023-01-04T06:34:35;0.00;;;0.00;;
59922;SDS011;45778;51.142;3.732;2023-01-04T06:37:01;0.00;;;0.00;;
59922;SDS011;45778;51.142;3.732;2023-01-04T06:39:26;0.00;;;0.00;;
59922;SDS011;45778;51.142;3.732;2023-01-04T06:41:52;2.40;;;1.40;;
59922;SDS011;45778;51.142;3.732;2023-01-04T06:44:18;0.00;;;0.00;;
59922;SDS011;45778;51.142;3.732;2023-01-04T06:46:44;0.00;;;0.00;;
59922;SDS011;45778;51.142;3.732;2023-01-04T06:49:10;0.00;;;0.00;;
59922;SDS011;45778;51.142;3.732;2023-01-04T06:51:35;0.03;;;0.03;;
59922;SDS011;45778;51.142;3.732;2023-01-04T06:54:01;0.00;;;0.00;;
59922;SDS011;45778;51.142;3.732;2023-01-04T06:56:27;0.00;;;0.00;;
59922;SDS011;45778;51.142;3.732;2023-01-04T06:58:54;0.00;;;0.00;;
59922;SDS011;45778;51.142;3.732;2023-01-04T07:01:20;0.98;;;0.65;;
59922;SDS011;45778;51.142;3.732;2023-01-04T07:03:46;0.00;;;0.00;;
59922;SDS011;45778;51.142;3.732;2023-01-04T07:06:11;0.00;;;0.00;;
59922;SDS011;45778;51.142;3.732;2023-01-04T07:08:38;0.00;;;0.00;;
59922;SDS011;45778;51.142;3.732;2023-01-04T07:11:04;0.20;;;0.20;;
59922;SDS011;45778;51.142;3.732;2023-01-04T07:13:30;0.13;;;0.13;;
59922;SDS011;45778;51.142;3.732;2023-01-04T07:15:55;0.10;;;0.10;;
59922;SDS011;45778;51.142;3.732;2023-01-04T07:18:21;0.00;;;0.00;;
59922;SDS011;45778;51.142;3.732;2023-01-04T07:20:47;0.00;;;0.00;;
59922;SDS011;45778;51.142;3.732;2023-01-04T07:23:13;3.70;;;1.52;;
59922;SDS011;45778;51.142;3.732;2023-01-04T07:25:39;6.50;;;0.70;;
59922;SDS011;45778;51.142;3.732;2023-01-04T07:28:04;0.00;;;0.00;;
59922;SDS011;45778;51.142;3.732;2023-01-04T07:30:30;2.25;;;1.88;;
59922;SDS011;45778;51.142;3.732;2023-01-04T07:32:56;2.72;;;2.13;;
59922;SDS011;45778;51.142;3.732;2023-01-04T07:35:22;6.03;;;2.03;;
59922;SDS011;45778;51.142;3.732;2023-01-04T07:37:48;5.57;;;2.50;;
59922;SDS011;45778;51.142;3.732;2023-01-04T07:40:14;8.00;;;2.50;;
59922;SDS011;45778;51.142;3.732;2023-01-04T07:42:40;4.65;;;2.08;;
59922;SDS011;45778;51.142;3.732;2023-01-04T07:45:06;3.72;;;1.92;;
59922;SDS011;45778;51.142;3.732;2023-01-04T07:47:32;3.42;;;2.13;;
59922;SDS011;45778;51.142;3.732;2023-01-04T07:49:58;6.28;;;1.73;;
59922;SDS011;45778;51.142;3.732;2023-01-04T07:52:24;8.55;;;2.00;;
59922;SDS011;45778;51.142;3.732;2023-01-04T07:54:50;3.95;;;1.83;;
59922;SDS011;45778;51.142;3.732;2023-01-04T07:57:16;4.15;;;1.48;;
59922;SDS011;45778;51.142;3.732;2023-01-04T07:59:42;3.50;;;1.48;;
59922;SDS011;45778;51.142;3.732;2023-01-04T08:02:09;5.28;;;1.30;;
59922;SDS011;45778;51.142;3.732;2023-01-04T08:04:35;6.22;;;1.15;;
59922;SDS011;45778;51.142;3.732;2023-01-04T08:07:01;7.55;;;1.02;;
59922;SDS011;45778;51.142;3.732;2023-01-04T08:09:27;5.70;;;1.20;;
59922;SDS011;45778;51.142;3.732;2023-01-04T08:11:53;3.60;;;0.98;;
59922;SDS011;45778;51.142;3.732;2023-01-04T08:14:18;0.00;;;0.00;;
59922;SDS011;45778;51.142;3.732;2023-01-04T08:16:44;0.80;;;0.40;;
59922;SDS011;45778;51.142;3.732;2023-01-04T08:19:14;1.55;;;1.45;;
59922;SDS011;45778;51.142;3.732;2023-01-04T08:21:41;0.05;;;0.05;;
59922;SDS011;45778;51.142;3.732;2023-01-04T08:24:10;0.00;;;0.00;;
59922;SDS011;45778;51.142;3.732;2023-01-04T08:29:06;0.00;;;0.00;;
59922;SDS011;45778;51.142;3.732;2023-01-04T08:31:33;0.00;;;0.00;;
59922;SDS011;45778;51.142;3.732;2023-01-04T08:34:03;0.22;;;0.22;;
59922;SDS011;45778;51.142;3.732;2023-01-04T08:36:31;0.10;;;0.10;;
59922;SDS011;45778;51.142;3.732;2023-01-04T08:39:08;0.00;;;0.00;;
59922;SDS011;45778;51.142;3.732;2023-01-04T08:41:34;0.00;;;0.00;;
59922;SDS011;45778;51.142;3.732;2023-01-04T08:44:18;0.00;;;0.00;;
59922;SDS011;45778;51.142;3.732;2023-01-04T08:46:49;0.00;;;0.00;;
59922;SDS011;45778;51.142;3.732;2023-01-04T08:49:15;0.00;;;0.00;;
59922;SDS011;45778;51.142;3.732;2023-01-04T08:51:42;0.00;;;0.00;;
59922;SDS011;45778;51.142;3.732;2023-01-04T08:54:08;0.00;;;0.00;;
59922;SDS011;45778;51.142;3.732;2023-01-04T08:56:34;0.00;;;0.00;;
59922;SDS011;45778;51.142;3.732;2023-01-04T08:59:00;0.00;;;0.00;;
59922;SDS011;45778;51.142;3.732;2023-01-04T09:01:26;0.00;;;0.00;;
59922;SDS011;45778;51.142;3.732;2023-01-04T09:03:52;0.00;;;0.00;;
59922;SDS011;45778;51.142;3.732;2023-01-04T09:06:19;0.00;;;0.00;;
59922;SDS011;45778;51.142;3.732;2023-01-04T09:08:46;0.10;;;0.10;;
59922;SDS011;45778;51.142;3.732;2023-01-04T09:11:13;0.38;;;0.38;;
59922;SDS011;45778;51.142;3.732;2023-01-04T09:13:40;0.00;;;0.00;;
59922;SDS011;45778;51.142;3.732;2023-01-04T09:16:08;0.00;;;0.00;;
59922;SDS011;45778;51.142;3.732;2023-01-04T09:18:38;0.10;;;0.10;;
59922;SDS011;45778;51.142;3.732;2023-01-04T09:21:14;0.00;;;0.00;;
59922;SDS011;45778;51.142;3.732;2023-01-04T09:23:42;0.00;;;0.00;;
59922;SDS011;45778;51.142;3.732;2023-01-04T09:26:10;0.10;;;0.10;;
59922;SDS011;45778;51.142;3.732;2023-01-04T09:28:46;0.00;;;0.00;;
59922;SDS011;45778;51.142;3.732;2023-01-04T09:31:13;0.00;;;0.00;;
59922;SDS011;45778;51.142;3.732;2023-01-04T09:33:43;0.00;;;0.00;;
59922;SDS011;45778;51.142;3.732;2023-01-04T09:36:10;0.00;;;0.00;;
59922;SDS011;45778;51.142;3.732;2023-01-04T09:38:38;0.00;;;0.00;;
59922;SDS011;45778;51.142;3.732;2023-01-04T09:43:32;3.67;;;1.50;;
59922;SDS011;45778;51.142;3.732;2023-01-04T09:46:08;0.00;;;0.00;;
59922;SDS011;45778;51.142;3.732;2023-01-04T09:48:36;0.22;;;0.22;;
59922;SDS011;45778;51.142;3.732;2023-01-04T09:51:06;0.00;;;0.00;;
59922;SDS011;45778;51.142;3.732;2023-01-04T09:53:52;0.00;;;0.00;;
59922;SDS011;45778;51.142;3.732;2023-01-04T09:56:33;0.00;;;0.00;;
59922;SDS011;45778;51.142;3.732;2023-01-04T09:59:04;0.95;;;0.90;;
59922;SDS011;45778;51.142;3.732;2023-01-04T10:01:43;0.00;;;0.00;;
59922;SDS011;45778;51.142;3.732;2023-01-04T10:04:34;0.00;;;0.00;;
59922;SDS011;45778;51.142;3.732;2023-01-04T10:07:29;0.20;;;0.20;;
59922;SDS011;45778;51.142;3.732;2023-01-04T10:09:57;0.00;;;0.00;;
59922;SDS011;45778;51.142;3.732;2023-01-04T10:12:38;0.00;;;0.00;;
59922;SDS011;45778;51.142;3.732;2023-01-04T10:20:51;0.00;;;0.00;;
59922;SDS011;45778;51.142;3.732;2023-01-04T10:31:39;0.10;;;0.10;;
59922;SDS011;45778;51.142;3.732;2023-01-04T10:34:43;0.00;;;0.00;;
59922;SDS011;45778;51.142;3.732;2023-01-04T10:39:37;0.00;;;0.00;;
59922;SDS011;45778;51.142;3.732;2023-01-04T10:45:15;0.00;;;0.00;;
59922;SDS011;45778;51.142;3.732;2023-01-04T10:47:52;0.00;;;0.00;;
59922;SDS011;45778;51.142;3.732;2023-01-04T10:50:34;0.00;;;0.00;;
59922;SDS011;45778;51.142;3.732;2023-01-04T10:53:17;0.00;;;0.00;;
59922;SDS011;45778;51.142;3.732;2023-01-04T10:56:34;0.00;;;0.00;;
59922;SDS011;45778;51.142;3.732;2023-01-04T11:02:01;0.13;;;0.13;;
59922;SDS011;45778;51.142;3.732;2023-01-04T11:04:52;0.00;;;0.00;;
59922;SDS011;45778;51.142;3.732;2023-01-04T11:07:37;0.10;;;0.10;;
59922;SDS011;45778;51.142;3.732;2023-01-04T11:10:07;0.00;;;0.00;;
59922;SDS011;45778;51.142;3.732;2023-01-04T11:12:38;0.47;;;0.33;;
59922;SDS011;45778;51.142;3.732;2023-01-04T11:15:03;0.00;;;0.00;;
59922;SDS011;45778;51.142;3.732;2023-01-04T11:17:30;0.00;;;0.00;;
59922;SDS011;45778;51.142;3.732;2023-01-04T11:19:57;0.65;;;0.55;;
59922;SDS011;45778;51.142;3.732;2023-01-04T11:22:33;0.00;;;0.00;;
59922;SDS011;45778;51.142;3.732;2023-01-04T11:25:07;0.00;;;0.00;;
59922;SDS011;45778;51.142;3.732;2023-01-04T11:27:45;0.00;;;0.00;;
59922;SDS011;45778;51.142;3.732;2023-01-04T11:30:19;0.00;;;0.00;;
59922;SDS011;45778;51.142;3.732;2023-01-04T11:32:55;0.00;;;0.00;;
59922;SDS011;45778;51.142;3.732;2023-01-04T11:38:24;0.00;;;0.00;;
59922;SDS011;45778;51.142;3.732;2023-01-04T11:43:31;0.00;;;0.00;;
59922;SDS011;45778;51.142;3.732;2023-01-04T11:48:37;0.38;;;0.32;;
59922;SDS011;45778;51.142;3.732;2023-01-04T11:51:08;0.00;;;0.00;;
59922;SDS011;45778;51.142;3.732;2023-01-04T11:56:29;0.00;;;0.00;;
59922;SDS011;45778;51.142;3.732;2023-01-04T12:01:42;0.20;;;0.15;;
59922;SDS011;45778;51.142;3.732;2023-01-04T12:04:10;0.00;;;0.00;;
59922;SDS011;45778;51.142;3.732;2023-01-04T12:09:49;0.00;;;0.00;;
59922;SDS011;45778;51.142;3.732;2023-01-04T12:12:15;0.00;;;0.00;;
59922;SDS011;45778;51.142;3.732;2023-01-04T12:14:45;0.00;;;0.00;;
59922;SDS011;45778;51.142;3.732;2023-01-04T12:20:20;0.00;;;0.00;;
59922;SDS011;45778;51.142;3.732;2023-01-04T12:22:49;0.00;;;0.00;;
59922;SDS011;45778;51.142;3.732;2023-01-04T12:28:26;0.00;;;0.00;;
59922;SDS011;45778;51.142;3.732;2023-01-04T12:31:42;0.00;;;0.00;;
59922;SDS011;45778;51.142;3.732;2023-01-04T12:33:53;0.00;;;0.00;;
59922;SDS011;45778;51.142;3.732;2023-01-04T12:47:00;0.00;;;0.00;;
59922;SDS011;45778;51.142;3.732;2023-01-04T12:54:47;0.00;;;0.00;;
59922;SDS011;45778;51.142;3.732;2023-01-04T13:02:29;0.08;;;0.08;;
59922;SDS011;45778;51.142;3.732;2023-01-04T13:07:51;0.43;;;0.43;;
59922;SDS011;45778;51.142;3.732;2023-01-04T13:10:31;0.35;;;0.35;;
59922;SDS011;45778;51.142;3.732;2023-01-04T13:18:00;0.00;;;0.00;;
59922;SDS011;45778;51.142;3.732;2023-01-04T13:20:46;0.00;;;0.00;;
59922;SDS011;45778;51.142;3.732;2023-01-04T13:23:11;0.00;;;0.00;;
59922;SDS011;45778;51.142;3.732;2023-01-04T13:25:38;0.00;;;0.00;;
59922;SDS011;45778;51.142;3.732;2023-01-04T13:28:03;0.00;;;0.00;;
59922;SDS011;45778;51.142;3.732;2023-01-04T13:30:34;0.65;;;0.47;;
59922;SDS011;45778;51.142;3.732;2023-01-04T13:33:35;0.00;;;0.00;;
59922;SDS011;45778;51.142;3.732;2023-01-04T13:35:59;2.05;;;1.45;;
59922;SDS011;45778;51.142;3.732;2023-01-04T13:38:36;0.38;;;0.38;;
59922;SDS011;45778;51.142;3.732;2023-01-04T13:41:05;2.45;;;1.13;;
59922;SDS011;45778;51.142;3.732;2023-01-04T13:43:48;0.00;;;0.00;;
59922;SDS011;45778;51.142;3.732;2023-01-04T13:46:45;0.28;;;0.28;;
59922;SDS011;45778;51.142;3.732;2023-01-04T13:49:19;1.27;;;0.88;;
59922;SDS011;45778;51.142;3.732;2023-01-04T13:51:44;0.20;;;0.20;;
59922;SDS011;45778;51.142;3.732;2023-01-04T13:54:21;0.35;;;0.25;;
59922;SDS011;45778;51.142;3.732;2023-01-04T13:56:47;1.67;;;1.52;;
59922;SDS011;45778;51.142;3.732;2023-01-04T13:59:15;0.95;;;0.60;;
59922;SDS011;45778;51.142;3.732;2023-01-04T14:01:42;0.15;;;0.15;;
59922;SDS011;45778;51.142;3.732;2023-01-04T14:04:13;0.00;;;0.00;;
59922;SDS011;45778;51.142;3.732;2023-01-04T14:06:49;0.00;;;0.00;;
59922;SDS011;45778;51.142;3.732;2023-01-04T14:09:17;1.95;;;1.48;;
59922;SDS011;45778;51.142;3.732;2023-01-04T14:11:47;0.00;;;0.00;;
59922;SDS011;45778;51.142;3.732;2023-01-04T14:19:59;1.75;;;1.25;;
59922;SDS011;45778;51.142;3.732;2023-01-04T14:22:36;0.10;;;0.10;;
59922;SDS011;45778;51.142;3.732;2023-01-04T14:25:39;0.00;;;0.00;;
59922;SDS011;45778;51.142;3.732;2023-01-04T14:28:16;1.25;;;0.63;;
59922;SDS011;45778;51.142;3.732;2023-01-04T14:36:10;0.00;;;0.00;;
59922;SDS011;45778;51.142;3.732;2023-01-04T14:41:23;0.00;;;0.00;;
59922;SDS011;45778;51.142;3.732;2023-01-04T14:46:40;0.00;;;0.00;;
59922;SDS011;45778;51.142;3.732;2023-01-04T14:49:10;0.00;;;0.00;;
59922;SDS011;45778;51.142;3.732;2023-01-04T14:51:55;0.00;;;0.00;;
59922;SDS011;45778;51.142;3.732;2023-01-04T14:54:26;1.27;;;0.70;;
59922;SDS011;45778;51.142;3.732;2023-01-04T14:56:53;0.00;;;0.00;;
59922;SDS011;45778;51.142;3.732;2023-01-04T14:59:21;0.00;;;0.00;;
59922;SDS011;45778;51.142;3.732;2023-01-04T15:01:51;0.00;;;0.00;;
59922;SDS011;45778;51.142;3.732;2023-01-04T15:04:17;0.00;;;0.00;;
59922;SDS011;45778;51.142;3.732;2023-01-04T15:06:50;0.00;;;0.00;;
59922;SDS011;45778;51.142;3.732;2023-01-04T15:09:18;0.00;;;0.00;;
59922;SDS011;45778;51.142;3.732;2023-01-04T15:11:44;0.00;;;0.00;;
59922;SDS011;45778;51.142;3.732;2023-01-04T15:14:10;0.00;;;0.00;;
59922;SDS011;45778;51.142;3.732;2023-01-04T15:16:36;0.30;;;0.30;;
59922;SDS011;45778;51.142;3.732;2023-01-04T15:19:02;0.00;;;0.00;;
59922;SDS011;45778;51.142;3.732;2023-01-04T15:21:27;0.10;;;0.10;;
59922;SDS011;45778;51.142;3.732;2023-01-04T15:23:53;2.30;;;1.05;;
59922;SDS011;45778;51.142;3.732;2023-01-04T15:26:19;0.00;;;0.00;;
59922;SDS011;45778;51.142;3.732;2023-01-04T15:28:44;0.75;;;0.75;;
59922;SDS011;45778;51.142;3.732;2023-01-04T15:31:11;21.52;;;3.58;;
59922;SDS011;45778;51.142;3.732;2023-01-04T15:33:37;25.67;;;4.00;;
59922;SDS011;45778;51.142;3.732;2023-01-04T15:36:05;29.55;;;4.22;;
59922;SDS011;45778;51.142;3.732;2023-01-04T15:38:32;27.73;;;4.43;;
59922;SDS011;45778;51.142;3.732;2023-01-04T15:41:03;25.42;;;3.97;;
59922;SDS011;45778;51.142;3.732;2023-01-04T15:43:56;25.95;;;4.05;;
59922;SDS011;45778;51.142;3.732;2023-01-04T15:46:22;13.10;;;2.92;;
59922;SDS011;45778;51.142;3.732;2023-01-04T15:48:47;25.60;;;3.42;;
59922;SDS011;45778;51.142;3.732;2023-01-04T15:51:13;27.65;;;5.20;;
59922;SDS011;45778;51.142;3.732;2023-01-04T15:53:39;21.63;;;4.30;;
59922;SDS011;45778;51.142;3.732;2023-01-04T15:56:08;22.30;;;3.65;;
59922;SDS011;45778;51.142;3.732;2023-01-04T15:58:36;25.67;;;5.60;;
59922;SDS011;45778;51.142;3.732;2023-01-04T16:01:10;26.08;;;3.63;;
59922;SDS011;45778;51.142;3.732;2023-01-04T16:03:37;16.98;;;3.70;;
59922;SDS011;45778;51.142;3.732;2023-01-04T16:06:07;38.03;;;6.35;;
59922;SDS011;45778;51.142;3.732;2023-01-04T16:08:37;40.55;;;4.60;;
59922;SDS011;45778;51.142;3.732;2023-01-04T16:11:16;32.70;;;3.95;;
59922;SDS011;45778;51.142;3.732;2023-01-04T16:13:43;42.67;;;5.15;;
59922;SDS011;45778;51.142;3.732;2023-01-04T16:16:09;26.42;;;5.15;;
59922;SDS011;45778;51.142;3.732;2023-01-04T16:18:36;33.05;;;6.28;;
59922;SDS011;45778;51.142;3.732;2023-01-04T16:21:06;24.52;;;4.20;;
59922;SDS011;45778;51.142;3.732;2023-01-04T16:23:33;32.88;;;5.70;;
59922;SDS011;45778;51.142;3.732;2023-01-04T16:26:03;38.60;;;4.07;;
59922;SDS011;45778;51.142;3.732;2023-01-04T16:28:32;22.88;;;3.75;;
59922;SDS011;45778;51.142;3.732;2023-01-04T16:30:58;19.33;;;4.75;;
59922;SDS011;45778;51.142;3.732;2023-01-04T16:33:24;21.50;;;5.22;;
59922;SDS011;45778;51.142;3.732;2023-01-04T16:38:46;38.80;;;6.35;;
59922;SDS011;45778;51.142;3.732;2023-01-04T16:41:13;26.33;;;5.40;;
59922;SDS011;45778;51.142;3.732;2023-01-04T16:43:41;33.70;;;6.03;;
59922;SDS011;45778;51.142;3.732;2023-01-04T16:46:26;25.35;;;3.83;;
59922;SDS011;45778;51.142;3.732;2023-01-04T16:48:55;29.83;;;5.53;;
59922;SDS011;45778;51.142;3.732;2023-01-04T16:51:23;32.33;;;5.38;;
59922;SDS011;45778;51.142;3.732;2023-01-04T16:53:50;34.88;;;6.38;;
59922;SDS011;45778;51.142;3.732;2023-01-04T16:56:17;35.47;;;5.82;;
59922;SDS011;45778;51.142;3.732;2023-01-04T16:58:44;28.05;;;5.45;;
59922;SDS011;45778;51.142;3.732;2023-01-04T17:01:13;31.63;;;5.60;;
59922;SDS011;45778;51.142;3.732;2023-01-04T17:03:44;22.80;;;4.43;;
59922;SDS011;45778;51.142;3.732;2023-01-04T17:08:44;31.42;;;5.22;;
59922;SDS011;45778;51.142;3.732;2023-01-04T17:11:11;30.00;;;5.30;;
59922;SDS011;45778;51.142;3.732;2023-01-04T17:13:39;33.83;;;6.25;;
59922;SDS011;45778;51.142;3.732;2023-01-04T17:16:05;33.15;;;6.82;;
59922;SDS011;45778;51.142;3.732;2023-01-04T17:18:31;32.28;;;5.90;;
59922;SDS011;45778;51.142;3.732;2023-01-04T17:20:58;32.58;;;5.47;;
59922;SDS011;45778;51.142;3.732;2023-01-04T17:23:25;23.85;;;5.63;;
59922;SDS011;45778;51.142;3.732;2023-01-04T17:25:52;34.03;;;6.00;;
59922;SDS011;45778;51.142;3.732;2023-01-04T17:28:19;31.10;;;5.72;;